createdAt,value
2023-04-20T00:02:21.800Z,5.22
2023-04-20T00:07:24.944Z,5.41
2023-04-20T00:12:26.556Z,5.33
2023-04-20T00:17:28.200Z,5.08
2023-04-20T00:22:30.096Z,5.14
2023-04-20T00:27:31.697Z,5.22
2023-04-20T00:32:33.438Z,5.26
2023-04-20T00:37:35.201Z,5.01
2023-04-20T00:42:37.475Z,4.69
2023-04-20T00:47:39.138Z,4.80
2023-04-20T00:52:41.597Z,4.37
2023-04-20T00:57:44.112Z,4.49
2023-04-20T01:02:45.953Z,4.31
2023-04-20T01:07:47.737Z,3.95
2023-04-20T01:12:49.611Z,3.91
2023-04-20T01:17:52.379Z,3.90
2023-04-20T01:22:54.629Z,3.79
2023-04-20T01:27:56.273Z,3.58
2023-04-20T01:32:57.939Z,3.41
2023-04-20T01:37:59.564Z,3.27
2023-04-20T01:43:01.217Z,3.23
2023-04-20T01:48:02.941Z,3.21
2023-04-20T01:53:04.610Z,3.05
2023-04-20T01:58:06.282Z,3.04
2023-04-20T02:03:08.598Z,3.33
2023-04-20T02:08:11.073Z,3.53
2023-04-20T02:13:14.371Z,3.57
2023-04-20T02:18:18.968Z,3.52
2023-04-20T02:23:20.632Z,3.45
2023-04-20T02:28:22.302Z,3.45
2023-04-20T02:33:23.951Z,3.38
2023-04-20T02:38:28.347Z,3.29
2023-04-20T02:43:30.018Z,3.14
2023-04-20T02:48:31.791Z,3.11
2023-04-20T02:53:34.924Z,3.07
2023-04-20T02:58:55.391Z,3.41
2023-04-20T03:04:15.637Z,3.17
2023-04-20T03:09:34.657Z,3.60
2023-04-20T03:14:54.932Z,3.56
2023-04-20T03:20:05.143Z,3.71
2023-04-20T03:25:07.828Z,3.79
2023-04-20T03:30:29.293Z,3.81
2023-04-20T03:35:39.524Z,3.98
2023-04-20T03:40:41.377Z,4.13
2023-04-20T03:45:43.027Z,3.97
2023-04-20T03:50:44.718Z,3.62
2023-04-20T03:55:46.839Z,3.88
2023-04-20T04:00:53.532Z,3.63
2023-04-20T04:05:55.489Z,3.65
2023-04-20T04:10:57.350Z,3.51
2023-04-20T04:15:59.177Z,3.52
2023-04-20T04:21:02.180Z,3.61
2023-04-20T04:26:05.078Z,3.54
2023-04-20T04:31:10.024Z,3.52
2023-04-20T04:36:12.506Z,3.61
2023-04-20T04:41:14.263Z,3.42
2023-04-20T04:46:17.718Z,3.01
2023-04-20T04:51:19.418Z,3.16
2023-04-20T04:56:21.802Z,3.38
2023-04-20T05:01:23.493Z,3.13
2023-04-20T05:06:25.214Z,3.37
2023-04-20T05:11:26.868Z,3.30
2023-04-20T05:16:28.548Z,3.41
2023-04-20T05:21:30.916Z,3.59
2023-04-20T05:26:32.530Z,3.47
2023-04-20T05:31:34.266Z,3.60
2023-04-20T05:36:35.975Z,3.71
2023-04-20T05:41:37.626Z,3.85
2023-04-20T05:46:39.261Z,3.52
2023-04-20T05:51:40.938Z,3.50
2023-04-20T05:56:42.583Z,3.61
2023-04-20T06:01:44.189Z,3.97
2023-04-20T06:06:45.820Z,4.25
2023-04-20T06:11:47.460Z,4.65
2023-04-20T06:16:49.104Z,4.69
2023-04-20T06:21:50.748Z,3.90
2023-04-20T06:26:52.347Z,3.88
2023-04-20T06:31:54.216Z,3.65
2023-04-20T06:36:56.136Z,4.14
2023-04-20T06:41:58.844Z,4.16
2023-04-20T06:47:00.754Z,4.89
2023-04-20T06:52:02.507Z,4.71
2023-04-20T06:57:04.242Z,4.76
2023-04-20T07:02:06.003Z,5.12
2023-04-20T07:07:08.015Z,4.47
2023-04-20T07:12:11.389Z,4.77
2023-04-20T07:17:13.024Z,4.73
2023-04-20T07:22:14.690Z,4.43
2023-04-20T07:27:16.318Z,4.40
2023-04-20T07:32:17.995Z,3.92
2023-04-20T07:37:19.767Z,4.12
2023-04-20T07:42:21.965Z,3.90
2023-04-20T07:47:23.662Z,4.68
2023-04-20T07:52:26.048Z,4.84
2023-04-20T07:57:28.859Z,4.98
2023-04-20T08:02:32.342Z,5.19
2023-04-20T08:07:34.024Z,5.64
2023-04-20T08:12:36.363Z,5.55
2023-04-20T08:17:38.058Z,6.16
2023-04-20T08:22:39.985Z,5.86
2023-04-20T08:27:41.667Z,6.23
2023-04-20T08:32:43.590Z,6.69
2023-04-20T08:37:45.247Z,6.91
2023-04-20T08:42:47.015Z,7.32
2023-04-20T08:47:49.864Z,7.36
2023-04-20T08:52:51.539Z,7.37
2023-04-20T08:57:53.154Z,7.58
2023-04-20T09:02:56.186Z,7.53
2023-04-20T09:08:00.187Z,6.57
2023-04-20T09:13:01.808Z,7.15
2023-04-20T09:18:21.582Z,6.92
2023-04-20T09:23:23.229Z,7.11
2023-04-20T09:28:35.935Z,7.34
2023-04-20T09:33:37.786Z,7.49
2023-04-20T09:38:39.482Z,8.19
2023-04-20T09:43:41.760Z,8.18
2023-04-20T09:48:43.461Z,7.81
2023-04-20T09:53:46.628Z,7.19
2023-04-20T09:58:49.262Z,6.94
2023-04-20T10:03:56.220Z,6.96
2023-04-20T10:09:07.615Z,7.31
2023-04-20T10:14:17.612Z,7.67
2023-04-20T10:19:19.548Z,7.49
2023-04-20T10:24:31.614Z,7.66
2023-04-20T10:29:35.112Z,7.41
2023-04-20T10:34:38.011Z,7.56
2023-04-20T10:39:47.382Z,7.82
2023-04-20T10:44:49.620Z,6.94
2023-04-20T10:49:51.287Z,6.61
2023-04-20T10:54:52.973Z,6.90
2023-04-20T10:59:54.823Z,7.31
2023-04-20T11:05:01.117Z,8.09
2023-04-20T11:10:03.036Z,7.78
2023-04-20T11:15:05.160Z,7.78
2023-04-20T11:20:09.219Z,8.27
2023-04-20T11:25:12.565Z,8.25
2023-04-20T11:30:14.453Z,7.93
2023-04-20T11:35:16.206Z,8.04
2023-04-20T11:40:17.935Z,8.55
2023-04-20T11:45:19.554Z,8.24
2023-04-20T11:50:22.018Z,8.24
2023-04-20T11:55:23.838Z,7.98
2023-04-20T12:00:26.006Z,8.73
2023-04-20T12:05:28.598Z,8.69
2023-04-20T12:10:30.361Z,8.69
2023-04-20T12:15:32.321Z,9.01
2023-04-20T12:20:34.169Z,8.73
2023-04-20T12:25:35.869Z,8.84
2023-04-20T12:30:37.609Z,9.23
2023-04-20T12:35:39.442Z,9.46
2023-04-20T12:40:41.115Z,9.33
2023-04-20T12:45:42.757Z,9.03
2023-04-20T12:50:44.405Z,9.61
2023-04-20T12:55:46.062Z,9.55
2023-04-20T13:00:47.895Z,9.85
2023-04-20T13:05:49.571Z,9.35
2023-04-20T13:10:51.230Z,9.64
2023-04-20T13:15:56.231Z,9.63
2023-04-20T13:20:57.825Z,9.77
2023-04-20T13:26:01.626Z,9.94
2023-04-20T13:31:03.595Z,10.64
2023-04-20T13:36:05.578Z,10.75
2023-04-20T13:41:07.213Z,10.19
2023-04-20T13:46:08.910Z,10.45
2023-04-20T13:51:10.639Z,10.56
2023-04-20T13:56:12.290Z,10.69
2023-04-20T14:01:16.400Z,11.44
2023-04-20T14:06:18.174Z,12.35
2023-04-20T14:11:19.837Z,12.45
2023-04-20T14:16:22.842Z,12.67
2023-04-20T14:21:24.639Z,12.13
2023-04-20T14:26:27.578Z,11.82
2023-04-20T14:31:29.459Z,11.72
2023-04-20T14:36:32.468Z,12.47
2023-04-20T14:41:34.657Z,12.20
2023-04-20T14:46:36.321Z,12.04
2023-04-20T14:51:37.930Z,12.22
2023-04-20T14:56:39.548Z,12.18
2023-04-20T15:01:51.328Z,11.97
2023-04-20T15:07:00.791Z,12.02
2023-04-20T15:12:02.657Z,11.80
2023-04-20T15:17:04.310Z,11.93
2023-04-20T15:22:05.904Z,12.66
2023-04-20T15:27:07.715Z,12.57
2023-04-20T15:32:09.449Z,13.11
2023-04-20T15:37:11.157Z,12.64
2023-04-20T15:42:13.050Z,12.66
2023-04-20T15:47:15.615Z,12.69
2023-04-20T15:52:17.276Z,12.17
2023-04-20T15:57:18.887Z,12.33
2023-04-20T16:02:20.635Z,12.21
2023-04-20T16:07:22.421Z,12.16
2023-04-20T16:12:24.126Z,12.17
2023-04-20T16:17:25.785Z,12.09
2023-04-20T16:22:27.411Z,11.71
2023-04-20T16:27:29.443Z,11.73
2023-04-20T16:32:31.580Z,11.76
2023-04-20T16:37:35.469Z,11.94
2023-04-20T16:42:37.190Z,11.60
2023-04-20T16:47:38.930Z,11.62
2023-04-20T16:52:40.755Z,11.26
2023-04-20T16:57:42.397Z,11.26
2023-04-20T17:02:44.131Z,11.13
2023-04-20T17:07:46.264Z,11.22
2023-04-20T17:12:49.822Z,11.31
2023-04-20T17:17:51.662Z,10.89
2023-04-20T17:22:53.359Z,10.53
2023-04-20T17:27:54.967Z,10.40
2023-04-20T17:32:57.418Z,10.35
2023-04-20T17:37:59.748Z,10.18
2023-04-20T17:43:01.871Z,10.07
2023-04-20T17:48:03.679Z,9.76
2023-04-20T17:53:06.966Z,9.61
2023-04-20T17:58:08.909Z,9.43
2023-04-20T18:03:11.549Z,9.27
2023-04-20T18:08:14.081Z,9.11
2023-04-20T18:13:15.862Z,8.95
2023-04-20T18:18:19.688Z,8.81
2023-04-20T18:23:21.351Z,8.48
2023-04-20T18:28:23.331Z,8.57
2023-04-20T18:33:24.977Z,8.35
2023-04-20T18:38:26.786Z,8.17
2023-04-20T18:43:28.418Z,8.14
2023-04-20T18:48:30.009Z,8.14
2023-04-20T18:53:34.117Z,7.89
2023-04-20T18:58:35.908Z,7.97
2023-04-20T19:03:37.623Z,7.77
2023-04-20T19:08:39.258Z,7.93
2023-04-20T19:13:45.301Z,7.71
2023-04-20T19:18:48.513Z,7.52
2023-04-20T19:23:51.002Z,7.61
2023-04-20T19:28:53.467Z,7.52
2023-04-20T19:33:56.664Z,7.59
2023-04-20T19:38:59.404Z,7.53
2023-04-20T19:44:02.423Z,7.38
2023-04-20T19:49:04.254Z,7.58
2023-04-20T19:54:05.867Z,7.40
2023-04-20T19:59:07.557Z,7.29
2023-04-20T20:04:09.418Z,7.23
2023-04-20T20:09:11.151Z,7.14
2023-04-20T20:14:12.749Z,7.13
2023-04-20T20:19:14.358Z,6.96
2023-04-20T20:24:16.253Z,6.84
2023-04-20T20:29:18.112Z,6.78
2023-04-20T20:34:19.898Z,6.81
2023-04-20T20:39:22.004Z,6.59
2023-04-20T20:44:23.823Z,6.68
2023-04-20T20:49:25.464Z,6.49
2023-04-20T20:54:27.059Z,6.57
2023-04-20T20:59:28.719Z,6.50
2023-04-20T21:04:30.607Z,6.54
2023-04-20T21:09:33.073Z,6.34
2023-04-20T21:14:34.726Z,6.37
2023-04-20T21:19:36.626Z,6.23
2023-04-20T21:24:38.272Z,6.20
2023-04-20T21:29:39.879Z,6.14
2023-04-20T21:34:42.348Z,5.98
2023-04-20T21:39:44.087Z,5.94
2023-04-20T21:44:45.752Z,5.90
2023-04-20T21:49:47.496Z,5.85
2023-04-20T21:54:49.182Z,5.77
2023-04-20T21:59:50.808Z,5.74
2023-04-20T22:04:52.630Z,5.90
2023-04-20T22:09:54.466Z,5.76
2023-04-20T22:14:56.119Z,5.57
2023-04-20T22:19:57.717Z,5.53
2023-04-20T22:24:59.412Z,5.53
2023-04-20T22:30:01.198Z,5.29
2023-04-20T22:35:03.363Z,5.16
2023-04-20T22:40:08.695Z,5.09
2023-04-20T22:45:11.822Z,5.04
2023-04-20T22:50:13.983Z,5.12
2023-04-20T22:55:15.870Z,5.21
2023-04-20T23:00:17.741Z,5.09
2023-04-20T23:05:20.451Z,5.03
2023-04-20T23:10:22.373Z,5.07
2023-04-20T23:15:23.992Z,4.94
2023-04-20T23:20:25.628Z,4.73
2023-04-20T23:25:27.261Z,4.70
2023-04-20T23:30:29.024Z,4.74
2023-04-20T23:35:30.687Z,4.77
2023-04-20T23:40:32.313Z,4.49
2023-04-20T23:45:34.017Z,4.38
2023-04-20T23:50:37.105Z,4.69
2023-04-20T23:55:38.760Z,4.56
